Terminal Aerodrome Forecast
Issued by NWS Sterling, VA

Current Version | Previous Version | Text Only | Print | Product List | Glossary On
Versions: 1 2 3 4 5 6 7 8 9 10 11 12 13 14
426
FTUS41 KLWX 270524
TAFCHO
TAF
KCHO 270524Z 2706/2806 VRB03KT P6SM SCT050 BKN150
     FM270800 VRB03KT 3SM BR SCT050 BKN150
     FM271200 VRB03KT P6SM SCT050 BKN150
     FM271500 22009KT P6SM BKN050 BKN150
     FM280000 VRB04KT P6SM BKN050 BKN150=

USA.gov is the U.S. government's official web portal to all federal, state and local government web resources and services.